sensor_id;sensor_type;location;lat;lon;timestamp;pressure;altitude;pressure_sealevel;temperature;humidity
19457;BME280;9867;48.094;11.478;2022-10-03T00:01:31;95769.16;;;10.61;100.00
19457;BME280;9867;48.094;11.478;2022-10-03T00:04:20;95769.78;;;10.63;100.00
19457;BME280;9867;48.094;11.478;2022-10-03T00:07:01;95773.47;;;10.60;100.00
19457;BME280;9867;48.094;11.478;2022-10-03T00:09:55;95766.16;;;10.57;100.00
19457;BME280;9867;48.094;11.478;2022-10-03T00:12:44;95770.91;;;10.60;100.00
19457;BME280;9867;48.094;11.478;2022-10-03T00:15:18;95775.53;;;10.50;100.00
19457;BME280;9867;48.094;11.478;2022-10-03T00:18:00;95771.47;;;10.41;100.00
19457;BME280;9867;48.094;11.478;2022-10-03T00:20:48;95771.66;;;10.39;100.00
19457;BME280;9867;48.094;11.478;2022-10-03T00:23:24;95774.38;;;10.52;100.00
19457;BME280;9867;48.094;11.478;2022-10-03T00:26:01;95771.28;;;10.42;100.00
19457;BME280;9867;48.094;11.478;2022-10-03T00:28:54;95783.69;;;10.39;100.00
19457;BME280;9867;48.094;11.478;2022-10-03T00:31:36;95791.81;;;10.28;100.00
19457;BME280;9867;48.094;11.478;2022-10-03T00:34:15;95790.06;;;10.13;100.00
19457;BME280;9867;48.094;11.478;2022-10-03T00:37:05;95792.63;;;10.13;100.00
19457;BME280;9867;48.094;11.478;2022-10-03T00:39:43;95798.09;;;10.10;100.00
19457;BME280;9867;48.094;11.478;2022-10-03T00:42:40;95794.56;;;10.11;100.00
19457;BME280;9867;48.094;11.478;2022-10-03T00:45:41;95796.91;;;9.98;100.00
19457;BME280;9867;48.094;11.478;2022-10-03T00:48:36;95790.13;;;9.90;100.00
19457;BME280;9867;48.094;11.478;2022-10-03T00:51:20;95787.63;;;9.82;100.00
19457;BME280;9867;48.094;11.478;2022-10-03T00:54:03;95791.53;;;9.78;100.00
19457;BME280;9867;48.094;11.478;2022-10-03T00:56:46;95791.16;;;9.67;100.00
19457;BME280;9867;48.094;11.478;2022-10-03T00:59:29;95792.47;;;9.63;100.00
19457;BME280;9867;48.094;11.478;2022-10-03T01:02:22;95807.22;;;9.61;100.00
19457;BME280;9867;48.094;11.478;2022-10-03T01:04:59;95797.59;;;9.63;100.00
19457;BME280;9867;48.094;11.478;2022-10-03T01:07:50;95796.53;;;9.57;100.00
19457;BME280;9867;48.094;11.478;2022-10-03T01:10:26;95801.19;;;9.53;100.00
19457;BME280;9867;48.094;11.478;2022-10-03T01:13:21;95795.94;;;9.47;100.00
19457;BME280;9867;48.094;11.478;2022-10-03T01:16:04;95804.97;;;9.43;100.00
19457;BME280;9867;48.094;11.478;2022-10-03T01:18:45;95802.13;;;9.38;100.00
19457;BME280;9867;48.094;11.478;2022-10-03T01:21:27;95803.91;;;9.37;100.00
19457;BME280;9867;48.094;11.478;2022-10-03T01:24:24;95805.25;;;9.25;100.00
19457;BME280;9867;48.094;11.478;2022-10-03T01:26:59;95815.41;;;9.18;100.00
19457;BME280;9867;48.094;11.478;2022-10-03T01:29:42;95820.84;;;9.15;100.00
19457;BME280;9867;48.094;11.478;2022-10-03T01:32:33;95826.31;;;9.12;100.00
19457;BME280;9867;48.094;11.478;2022-10-03T01:35:14;95821.69;;;9.08;100.00
19457;BME280;9867;48.094;11.478;2022-10-03T01:37:50;95823.63;;;9.06;100.00
19457;BME280;9867;48.094;11.478;2022-10-03T01:40:24;95812.09;;;9.10;100.00
19457;BME280;9867;48.094;11.478;2022-10-03T01:43:00;95823.59;;;9.14;100.00
19457;BME280;9867;48.094;11.478;2022-10-03T01:45:39;95825.34;;;9.13;100.00
19457;BME280;9867;48.094;11.478;2022-10-03T01:48:21;95819.19;;;9.22;100.00
19457;BME280;9867;48.094;11.478;2022-10-03T01:50:58;95837.09;;;9.22;100.00
19457;BME280;9867;48.094;11.478;2022-10-03T01:53:37;95836.69;;;9.19;100.00
19457;BME280;9867;48.094;11.478;2022-10-03T01:56:14;95850.81;;;9.30;100.00
19457;BME280;9867;48.094;11.478;2022-10-03T01:58:56;95850.50;;;9.33;100.00
19457;BME280;9867;48.094;11.478;2022-10-03T02:01:35;95859.13;;;9.09;100.00
19457;BME280;9867;48.094;11.478;2022-10-03T02:04:13;95855.31;;;9.28;100.00
19457;BME280;9867;48.094;11.478;2022-10-03T02:06:52;95853.84;;;9.10;100.00
19457;BME280;9867;48.094;11.478;2022-10-03T02:09:28;95862.97;;;9.05;100.00
19457;BME280;9867;48.094;11.478;2022-10-03T02:12:06;95869.41;;;9.01;100.00
19457;BME280;9867;48.094;11.478;2022-10-03T02:14:45;95869.72;;;8.98;100.00
19457;BME280;9867;48.094;11.478;2022-10-03T02:17:24;95869.56;;;8.99;100.00
19457;BME280;9867;48.094;11.478;2022-10-03T02:20:10;95867.53;;;8.95;100.00
19457;BME280;9867;48.094;11.478;2022-10-03T02:22:43;95866.00;;;9.08;100.00
19457;BME280;9867;48.094;11.478;2022-10-03T02:25:20;95857.38;;;9.09;100.00
19457;BME280;9867;48.094;11.478;2022-10-03T02:31:11;95858.78;;;9.12;100.00
19457;BME280;9867;48.094;11.478;2022-10-03T02:34:06;95868.69;;;9.15;100.00
19457;BME280;9867;48.094;11.478;2022-10-03T02:37:10;95868.81;;;8.91;100.00
19457;BME280;9867;48.094;11.478;2022-10-03T02:40:09;95861.00;;;8.92;100.00
19457;BME280;9867;48.094;11.478;2022-10-03T02:43:04;95866.66;;;9.02;100.00
19457;BME280;9867;48.094;11.478;2022-10-03T02:45:57;95869.00;;;9.20;100.00
19457;BME280;9867;48.094;11.478;2022-10-03T02:48:53;95867.22;;;9.20;100.00
19457;BME280;9867;48.094;11.478;2022-10-03T02:54:55;95868.47;;;9.24;100.00
19457;BME280;9867;48.094;11.478;2022-10-03T02:57:54;95872.34;;;9.20;100.00
19457;BME280;9867;48.094;11.478;2022-10-03T03:00:38;95880.28;;;9.26;100.00
19457;BME280;9867;48.094;11.478;2022-10-03T03:03:41;95886.53;;;9.23;100.00
19457;BME280;9867;48.094;11.478;2022-10-03T03:06:35;95880.59;;;9.31;100.00
19457;BME280;9867;48.094;11.478;2022-10-03T03:09:35;95878.69;;;9.24;100.00
19457;BME280;9867;48.094;11.478;2022-10-03T03:12:32;95884.56;;;9.33;100.00
19457;BME280;9867;48.094;11.478;2022-10-03T03:18:28;95895.50;;;9.27;100.00
19457;BME280;9867;48.094;11.478;2022-10-03T03:21:19;95900.56;;;9.04;100.00
19457;BME280;9867;48.094;11.478;2022-10-03T03:24:00;95916.25;;;9.01;100.00
19457;BME280;9867;48.094;11.478;2022-10-03T03:27:06;95914.22;;;8.97;100.00
19457;BME280;9867;48.094;11.478;2022-10-03T03:29:44;95911.91;;;9.10;100.00
19457;BME280;9867;48.094;11.478;2022-10-03T03:32:22;95907.88;;;8.84;100.00
19457;BME280;9867;48.094;11.478;2022-10-03T03:35:00;95918.09;;;8.84;100.00
19457;BME280;9867;48.094;11.478;2022-10-03T03:37:36;95918.47;;;8.73;100.00
19457;BME280;9867;48.094;11.478;2022-10-03T03:40:25;95910.75;;;8.81;100.00
19457;BME280;9867;48.094;11.478;2022-10-03T03:45:58;95915.31;;;8.63;100.00
19457;BME280;9867;48.094;11.478;2022-10-03T03:48:56;95916.44;;;8.61;100.00
19457;BME280;9867;48.094;11.478;2022-10-03T03:51:36;95920.41;;;8.63;100.00
19457;BME280;9867;48.094;11.478;2022-10-03T03:54:46;95911.00;;;8.55;100.00
19457;BME280;9867;48.094;11.478;2022-10-03T03:57:39;95921.91;;;8.49;100.00
19457;BME280;9867;48.094;11.478;2022-10-03T04:00:18;95916.00;;;8.49;100.00
19457;BME280;9867;48.094;11.478;2022-10-03T04:02:59;95927.13;;;8.56;100.00
19457;BME280;9867;48.094;11.478;2022-10-03T04:05:51;95925.91;;;8.44;100.00
19457;BME280;9867;48.094;11.478;2022-10-03T04:08:43;95915.00;;;8.58;100.00
19457;BME280;9867;48.094;11.478;2022-10-03T04:11:22;95913.56;;;8.55;100.00
19457;BME280;9867;48.094;11.478;2022-10-03T04:14:09;95917.84;;;8.71;100.00
19457;BME280;9867;48.094;11.478;2022-10-03T04:16:58;95926.34;;;8.64;100.00
19457;BME280;9867;48.094;11.478;2022-10-03T04:20:01;95931.91;;;8.67;100.00
19457;BME280;9867;48.094;11.478;2022-10-03T04:22:48;95931.78;;;8.61;100.00
19457;BME280;9867;48.094;11.478;2022-10-03T04:25:34;95934.38;;;8.36;100.00
19457;BME280;9867;48.094;11.478;2022-10-03T04:28:19;95931.69;;;8.21;100.00
19457;BME280;9867;48.094;11.478;2022-10-03T04:31:04;95929.13;;;8.13;100.00
19457;BME280;9867;48.094;11.478;2022-10-03T04:33:49;95923.38;;;8.11;100.00
19457;BME280;9867;48.094;11.478;2022-10-03T04:36:37;95922.09;;;8.15;100.00
19457;BME280;9867;48.094;11.478;2022-10-03T04:39:17;95925.75;;;8.05;100.00
19457;BME280;9867;48.094;11.478;2022-10-03T04:41:53;95923.72;;;8.00;100.00
19457;BME280;9867;48.094;11.478;2022-10-03T04:44:32;95917.31;;;7.88;100.00
19457;BME280;9867;48.094;11.478;2022-10-03T04:47:07;95923.72;;;8.00;100.00
19457;BME280;9867;48.094;11.478;2022-10-03T04:49:42;95914.56;;;8.14;100.00
19457;BME280;9867;48.094;11.478;2022-10-03T04:52:17;95919.22;;;8.10;100.00
19457;BME280;9867;48.094;11.478;2022-10-03T04:54:55;95913.47;;;8.08;100.00
19457;BME280;9867;48.094;11.478;2022-10-03T04:57:30;95917.78;;;7.92;100.00
19457;BME280;9867;48.094;11.478;2022-10-03T05:00:13;95923.53;;;8.10;100.00
19457;BME280;9867;48.094;11.478;2022-10-03T05:02:52;95925.31;;;7.93;100.00
19457;BME280;9867;48.094;11.478;2022-10-03T05:05:30;95924.66;;;7.91;100.00
19457;BME280;9867;48.094;11.478;2022-10-03T05:08:15;95920.50;;;7.90;100.00
19457;BME280;9867;48.094;11.478;2022-10-03T05:11:01;95935.53;;;7.77;100.00
19457;BME280;9867;48.094;11.478;2022-10-03T05:13:38;95927.88;;;8.01;100.00
19457;BME280;9867;48.094;11.478;2022-10-03T05:16:17;95939.53;;;7.79;100.00
19457;BME280;9867;48.094;11.478;2022-10-03T05:18:51;95926.75;;;7.96;100.00
19457;BME280;9867;48.094;11.478;2022-10-03T05:21:32;95927.69;;;8.03;100.00
19457;BME280;9867;48.094;11.478;2022-10-03T05:24:12;95939.50;;;8.12;100.00
19457;BME280;9867;48.094;11.478;2022-10-03T05:26:47;95939.69;;;8.02;100.00
19457;BME280;9867;48.094;11.478;2022-10-03T05:29:23;95939.66;;;7.94;100.00
19457;BME280;9867;48.094;11.478;2022-10-03T05:32:05;95942.06;;;7.96;100.00
19457;BME280;9867;48.094;11.478;2022-10-03T05:34:57;95944.59;;;8.04;100.00
19457;BME280;9867;48.094;11.478;2022-10-03T05:37:51;95951.63;;;8.18;100.00
19457;BME280;9867;48.094;11.478;2022-10-03T05:40:27;95950.69;;;8.11;100.00
19457;BME280;9867;48.094;11.478;2022-10-03T05:43:02;95963.13;;;8.14;100.00
19457;BME280;9867;48.094;11.478;2022-10-03T05:45:46;95957.88;;;8.15;100.00
19457;BME280;9867;48.094;11.478;2022-10-03T05:48:27;95953.38;;;8.09;100.00
19457;BME280;9867;48.094;11.478;2022-10-03T05:51:15;95964.72;;;8.07;100.00
19457;BME280;9867;48.094;11.478;2022-10-03T06:00:19;95979.56;;;8.28;100.00
19457;BME280;9867;48.094;11.478;2022-10-03T06:02:57;95972.69;;;8.28;100.00
19457;BME280;9867;48.094;11.478;2022-10-03T06:05:30;95980.38;;;8.52;100.00
19457;BME280;9867;48.094;11.478;2022-10-03T06:08:22;95983.59;;;8.38;100.00
19457;BME280;9867;48.094;11.478;2022-10-03T06:11:00;95976.09;;;8.37;100.00
19457;BME280;9867;48.094;11.478;2022-10-03T06:13:44;95981.03;;;8.38;100.00
19457;BME280;9867;48.094;11.478;2022-10-03T06:16:26;95990.44;;;8.30;100.00
19457;BME280;9867;48.094;11.478;2022-10-03T06:19:08;95997.47;;;8.28;100.00
19457;BME280;9867;48.094;11.478;2022-10-03T06:25:11;96005.81;;;8.38;100.00
19457;BME280;9867;48.094;11.478;2022-10-03T06:28:19;96007.53;;;8.70;100.00
19457;BME280;9867;48.094;11.478;2022-10-03T06:31:11;96011.81;;;8.85;100.00
19457;BME280;9867;48.094;11.478;2022-10-03T06:34:05;96021.06;;;8.95;100.00
19457;BME280;9867;48.094;11.478;2022-10-03T06:36:47;96028.84;;;9.17;100.00
19457;BME280;9867;48.094;11.478;2022-10-03T06:39:54;96031.00;;;9.37;100.00
19457;BME280;9867;48.094;11.478;2022-10-03T06:42:45;96042.22;;;9.36;100.00
19457;BME280;9867;48.094;11.478;2022-10-03T06:45:48;96046.13;;;9.54;100.00
19457;BME280;9867;48.094;11.478;2022-10-03T06:48:30;96047.63;;;9.72;100.00
19457;BME280;9867;48.094;11.478;2022-10-03T06:51:20;96050.00;;;9.81;100.00
19457;BME280;9867;48.094;11.478;2022-10-03T06:57:21;96051.94;;;10.02;100.00
19457;BME280;9867;48.094;11.478;2022-10-03T07:00:10;96061.03;;;10.13;100.00
19457;BME280;9867;48.094;11.478;2022-10-03T07:03:06;96054.09;;;10.21;100.00
19457;BME280;9867;48.094;11.478;2022-10-03T07:06:05;96058.66;;;10.34;100.00
19457;BME280;9867;48.094;11.478;2022-10-03T07:12:00;96065.38;;;10.58;100.00
19457;BME280;9867;48.094;11.478;2022-10-03T07:21:12;96062.09;;;10.64;100.00
19457;BME280;9867;48.094;11.478;2022-10-03T07:23:56;96055.63;;;10.68;100.00
19457;BME280;9867;48.094;11.478;2022-10-03T07:26:55;96059.91;;;10.90;100.00
19457;BME280;9867;48.094;11.478;2022-10-03T07:29:57;96067.16;;;10.87;100.00
19457;BME280;9867;48.094;11.478;2022-10-03T07:32:52;96083.63;;;10.78;100.00
19457;BME280;9867;48.094;11.478;2022-10-03T07:35:37;96080.28;;;10.77;100.00
19457;BME280;9867;48.094;11.478;2022-10-03T07:38:38;96083.47;;;10.79;100.00
19457;BME280;9867;48.094;11.478;2022-10-03T07:44:46;96102.72;;;10.61;100.00
19457;BME280;9867;48.094;11.478;2022-10-03T07:51:01;96086.13;;;10.48;100.00
19457;BME280;9867;48.094;11.478;2022-10-03T07:54:02;96082.78;;;10.85;100.00
19457;BME280;9867;48.094;11.478;2022-10-03T07:57:23;96092.53;;;11.19;100.00
19457;BME280;9867;48.094;11.478;2022-10-03T08:00:14;96097.44;;;11.29;100.00
19457;BME280;9867;48.094;11.478;2022-10-03T08:06:05;96108.94;;;11.33;100.00
19457;BME280;9867;48.094;11.478;2022-10-03T08:08:58;96118.91;;;11.13;100.00
19457;BME280;9867;48.094;11.478;2022-10-03T08:11:45;96110.72;;;11.33;100.00
19457;BME280;9867;48.094;11.478;2022-10-03T08:14:24;96107.88;;;11.27;100.00
19457;BME280;9867;48.094;11.478;2022-10-03T08:17:27;96108.19;;;10.95;100.00
19457;BME280;9867;48.094;11.478;2022-10-03T08:20:13;96111.72;;;10.94;100.00
19457;BME280;9867;48.094;11.478;2022-10-03T08:22:56;96111.94;;;11.07;100.00
19457;BME280;9867;48.094;11.478;2022-10-03T08:25:40;96113.78;;;11.13;100.00
19457;BME280;9867;48.094;11.478;2022-10-03T08:28:42;96106.56;;;11.32;100.00
19457;BME280;9867;48.094;11.478;2022-10-03T08:31:40;96106.69;;;11.15;100.00
19457;BME280;9867;48.094;11.478;2022-10-03T08:34:47;96110.91;;;10.93;100.00
19457;BME280;9867;48.094;11.478;2022-10-03T08:47:26;96150.81;;;11.19;100.00
19457;BME280;9867;48.094;11.478;2022-10-03T08:50:34;96149.78;;;11.57;100.00
19457;BME280;9867;48.094;11.478;2022-10-03T08:53:39;96156.69;;;11.42;100.00
19457;BME280;9867;48.094;11.478;2022-10-03T08:56:20;96150.66;;;11.35;100.00
19457;BME280;9867;48.094;11.478;2022-10-03T08:59:18;96153.06;;;11.51;100.00
19457;BME280;9867;48.094;11.478;2022-10-03T09:02:14;96153.50;;;11.40;100.00
19457;BME280;9867;48.094;11.478;2022-10-03T09:11:36;96142.09;;;11.87;100.00
19457;BME280;9867;48.094;11.478;2022-10-03T09:14:27;96149.41;;;12.05;100.00
19457;BME280;9867;48.094;11.478;2022-10-03T09:17:19;96147.75;;;11.97;100.00
19457;BME280;9867;48.094;11.478;2022-10-03T09:23:17;96145.38;;;11.51;100.00
19457;BME280;9867;48.094;11.478;2022-10-03T09:29:14;96145.44;;;11.58;100.00
19457;BME280;9867;48.094;11.478;2022-10-03T09:35:27;96146.44;;;11.86;100.00
19457;BME280;9867;48.094;11.478;2022-10-03T09:41:32;96149.53;;;12.33;100.00
19457;BME280;9867;48.094;11.478;2022-10-03T09:44:39;96162.72;;;12.44;100.00
19457;BME280;9867;48.094;11.478;2022-10-03T09:47:31;96162.47;;;13.03;100.00
19457;BME280;9867;48.094;11.478;2022-10-03T09:53:40;96169.09;;;12.27;100.00
19457;BME280;9867;48.094;11.478;2022-10-03T09:56:42;96159.53;;;12.06;100.00
19457;BME280;9867;48.094;11.478;2022-10-03T09:59:38;96159.59;;;12.27;100.00
19457;BME280;9867;48.094;11.478;2022-10-03T10:02:33;96155.50;;;12.97;100.00
19457;BME280;9867;48.094;11.478;2022-10-03T10:05:30;96145.81;;;13.55;100.00
19457;BME280;9867;48.094;11.478;2022-10-03T10:11:19;96169.31;;;13.67;100.00
19457;BME280;9867;48.094;11.478;2022-10-03T10:14:16;96170.31;;;14.20;100.00
19457;BME280;9867;48.094;11.478;2022-10-03T10:23:24;96164.34;;;14.93;100.00
19457;BME280;9867;48.094;11.478;2022-10-03T10:32:36;96151.81;;;13.62;100.00
19457;BME280;9867;48.094;11.478;2022-10-03T10:35:30;96151.19;;;13.04;100.00
19457;BME280;9867;48.094;11.478;2022-10-03T10:44:39;96151.53;;;12.73;100.00
19457;BME280;9867;48.094;11.478;2022-10-03T10:47:49;96149.13;;;12.72;100.00
19457;BME280;9867;48.094;11.478;2022-10-03T10:51:15;96150.91;;;12.71;100.00
19457;BME280;9867;48.094;11.478;2022-10-03T10:54:12;96139.31;;;12.60;100.00
19457;BME280;9867;48.094;11.478;2022-10-03T10:57:02;96146.50;;;12.44;100.00
19457;BME280;9867;48.094;11.478;2022-10-03T11:00:19;96131.59;;;12.60;100.00
19457;BME280;9867;48.094;11.478;2022-10-03T11:06:39;96147.47;;;14.10;100.00
19457;BME280;9867;48.094;11.478;2022-10-03T11:09:40;96144.09;;;14.84;100.00
19457;BME280;9867;48.094;11.478;2022-10-03T11:16:08;96151.63;;;13.70;100.00
19457;BME280;9867;48.094;11.478;2022-10-03T11:19:12;96156.50;;;13.24;100.00
19457;BME280;9867;48.094;11.478;2022-10-03T11:22:30;96151.16;;;12.97;100.00
19457;BME280;9867;48.094;11.478;2022-10-03T11:25:35;96142.75;;;12.68;100.00
19457;BME280;9867;48.094;11.478;2022-10-03T11:32:07;96134.59;;;12.85;100.00
19457;BME280;9867;48.094;11.478;2022-10-03T11:35:17;96129.31;;;13.43;100.00
19457;BME280;9867;48.094;11.478;2022-10-03T11:37:54;96129.94;;;13.92;100.00
19457;BME280;9867;48.094;11.478;2022-10-03T11:40:33;96131.59;;;14.13;100.00
19457;BME280;9867;48.094;11.478;2022-10-03T11:43:54;96140.13;;;14.07;100.00
19457;BME280;9867;48.094;11.478;2022-10-03T11:46:40;96143.97;;;14.31;100.00
19457;BME280;9867;48.094;11.478;2022-10-03T11:49:28;96139.47;;;14.53;100.00
19457;BME280;9867;48.094;11.478;2022-10-03T11:52:06;96138.75;;;14.18;100.00
19457;BME280;9867;48.094;11.478;2022-10-03T11:54:42;96144.81;;;14.45;100.00
19457;BME280;9867;48.094;11.478;2022-10-03T11:57:16;96145.06;;;14.63;100.00
19457;BME280;9867;48.094;11.478;2022-10-03T11:59:57;96141.13;;;14.19;100.00
19457;BME280;9867;48.094;11.478;2022-10-03T12:02:54;96140.00;;;14.35;100.00
19457;BME280;9867;48.094;11.478;2022-10-03T12:05:45;96142.38;;;14.30;100.00
19457;BME280;9867;48.094;11.478;2022-10-03T12:08:21;96135.00;;;14.20;100.00
19457;BME280;9867;48.094;11.478;2022-10-03T12:11:16;96134.38;;;14.18;100.00
19457;BME280;9867;48.094;11.478;2022-10-03T12:13:59;96130.38;;;14.03;100.00
19457;BME280;9867;48.094;11.478;2022-10-03T12:16:53;96129.78;;;14.07;100.00
19457;BME280;9867;48.094;11.478;2022-10-03T12:19:27;96147.50;;;13.69;100.00
19457;BME280;9867;48.094;11.478;2022-10-03T12:22:08;96113.03;;;13.42;100.00
19457;BME280;9867;48.094;11.478;2022-10-03T12:24:41;96120.84;;;14.03;100.00
19457;BME280;9867;48.094;11.478;2022-10-03T12:27:18;96122.22;;;14.60;100.00
19457;BME280;9867;48.094;11.478;2022-10-03T12:29:55;96111.31;;;15.11;100.00
19457;BME280;9867;48.094;11.478;2022-10-03T12:32:37;96108.50;;;15.19;100.00
19457;BME280;9867;48.094;11.478;2022-10-03T12:35:27;96114.47;;;14.93;100.00
19457;BME280;9867;48.094;11.478;2022-10-03T12:38:12;96113.47;;;15.33;100.00
19457;BME280;9867;48.094;11.478;2022-10-03T12:40:53;96119.81;;;15.18;100.00
19457;BME280;9867;48.094;11.478;2022-10-03T12:43:35;96119.81;;;15.18;100.00
19457;BME280;9867;48.094;11.478;2022-10-03T12:46:12;96113.84;;;15.57;100.00
19457;BME280;9867;48.094;11.478;2022-10-03T12:48:45;96110.38;;;16.27;100.00
19457;BME280;9867;48.094;11.478;2022-10-03T12:51:44;96115.22;;;16.49;100.00
19457;BME280;9867;48.094;11.478;2022-10-03T13:00:24;96101.53;;;16.03;100.00
19457;BME280;9867;48.094;11.478;2022-10-03T13:03:14;96100.25;;;16.19;100.00
19457;BME280;9867;48.094;11.478;2022-10-03T13:06:06;96096.00;;;15.87;100.00
19457;BME280;9867;48.094;11.478;2022-10-03T13:08:54;96108.72;;;15.04;100.00
19457;BME280;9867;48.094;11.478;2022-10-03T13:11:31;96108.47;;;14.46;100.00
19457;BME280;9867;48.094;11.478;2022-10-03T13:14:25;96104.69;;;14.42;100.00
19457;BME280;9867;48.094;11.478;2022-10-03T13:17:03;96101.91;;;14.44;100.00
19457;BME280;9867;48.094;11.478;2022-10-03T13:19:41;96118.16;;;14.31;100.00
19457;BME280;9867;48.094;11.478;2022-10-03T13:22:20;96096.47;;;14.12;100.00
19457;BME280;9867;48.094;11.478;2022-10-03T13:24:59;96095.28;;;14.15;100.00
19457;BME280;9867;48.094;11.478;2022-10-03T13:27:40;96094.06;;;14.04;100.00
19457;BME280;9867;48.094;11.478;2022-10-03T13:30:18;96101.63;;;14.12;100.00
19457;BME280;9867;48.094;11.478;2022-10-03T13:33:12;96111.38;;;14.23;100.00
19457;BME280;9867;48.094;11.478;2022-10-03T13:35:47;96090.25;;;14.87;100.00
19457;BME280;9867;48.094;11.478;2022-10-03T13:38:43;96090.88;;;15.74;100.00
19457;BME280;9867;48.094;11.478;2022-10-03T13:41:21;96086.22;;;16.33;100.00
19457;BME280;9867;48.094;11.478;2022-10-03T13:43:58;96083.84;;;16.63;100.00
19457;BME280;9867;48.094;11.478;2022-10-03T13:46:41;96084.88;;;16.56;100.00
19457;BME280;9867;48.094;11.478;2022-10-03T13:49:23;96076.88;;;16.89;100.00
19457;BME280;9867;48.094;11.478;2022-10-03T13:52:00;96084.28;;;16.85;100.00
19457;BME280;9867;48.094;11.478;2022-10-03T13:54:59;96091.53;;;16.77;100.00
19457;BME280;9867;48.094;11.478;2022-10-03T13:57:35;96083.44;;;15.97;100.00
19457;BME280;9867;48.094;11.478;2022-10-03T14:00:09;96086.59;;;15.34;100.00
19457;BME280;9867;48.094;11.478;2022-10-03T14:02:49;96081.88;;;14.79;100.00
19457;BME280;9867;48.094;11.478;2022-10-03T14:05:31;96072.47;;;14.31;100.00
19457;BME280;9867;48.094;11.478;2022-10-03T14:08:09;96069.78;;;13.85;100.00
19457;BME280;9867;48.094;11.478;2022-10-03T14:11:00;96066.78;;;13.82;100.00
19457;BME280;9867;48.094;11.478;2022-10-03T14:13:45;96054.50;;;13.84;100.00
19457;BME280;9867;48.094;11.478;2022-10-03T14:16:24;96065.78;;;13.70;100.00
19457;BME280;9867;48.094;11.478;2022-10-03T14:19:08;96058.69;;;13.98;100.00
19457;BME280;9867;48.094;11.478;2022-10-03T14:22:08;96068.28;;;14.11;100.00
19457;BME280;9867;48.094;11.478;2022-10-03T14:24:49;96055.38;;;14.11;100.00
19457;BME280;9867;48.094;11.478;2022-10-03T14:27:43;96059.75;;;14.23;100.00
19457;BME280;9867;48.094;11.478;2022-10-03T14:30:15;96062.63;;;14.61;100.00
19457;BME280;9867;48.094;11.478;2022-10-03T14:33:02;96071.09;;;15.21;100.00
19457;BME280;9867;48.094;11.478;2022-10-03T14:35:35;96071.94;;;14.89;100.00
19457;BME280;9867;48.094;11.478;2022-10-03T14:38:16;96066.53;;;14.38;100.00
19457;BME280;9867;48.094;11.478;2022-10-03T14:40:47;96073.25;;;14.25;100.00
19457;BME280;9867;48.094;11.478;2022-10-03T14:43:25;96075.81;;;14.19;100.00
19457;BME280;9867;48.094;11.478;2022-10-03T14:45:58;96066.28;;;14.13;100.00
19457;BME280;9867;48.094;11.478;2022-10-03T14:48:37;96073.31;;;14.52;100.00
19457;BME280;9867;48.094;11.478;2022-10-03T14:51:13;96072.53;;;14.58;100.00
19457;BME280;9867;48.094;11.478;2022-10-03T14:53:51;96065.78;;;14.83;100.00
19457;BME280;9867;48.094;11.478;2022-10-03T14:56:32;96068.56;;;14.82;100.00
19457;BME280;9867;48.094;11.478;2022-10-03T14:59:10;96059.41;;;14.73;100.00
19457;BME280;9867;48.094;11.478;2022-10-03T15:01:46;96058.63;;;14.85;100.00
19457;BME280;9867;48.094;11.478;2022-10-03T15:04:31;96047.69;;;14.96;100.00
19457;BME280;9867;48.094;11.478;2022-10-03T15:07:08;96054.63;;;15.09;100.00
19457;BME280;9867;48.094;11.478;2022-10-03T15:09:57;96056.44;;;15.09;100.00
19457;BME280;9867;48.094;11.478;2022-10-03T15:12:35;96055.06;;;14.86;100.00
19457;BME280;9867;48.094;11.478;2022-10-03T15:15:09;96051.47;;;14.67;100.00
19457;BME280;9867;48.094;11.478;2022-10-03T15:17:57;96041.34;;;14.59;100.00
19457;BME280;9867;48.094;11.478;2022-10-03T15:20:33;96049.06;;;14.33;100.00
19457;BME280;9867;48.094;11.478;2022-10-03T15:23:05;96047.25;;;14.27;100.00
19457;BME280;9867;48.094;11.478;2022-10-03T15:25:36;96044.84;;;14.06;100.00
19457;BME280;9867;48.094;11.478;2022-10-03T15:28:08;96049.75;;;13.94;100.00
19457;BME280;9867;48.094;11.478;2022-10-03T15:30:45;96045.06;;;14.24;100.00
19457;BME280;9867;48.094;11.478;2022-10-03T15:33:31;96046.31;;;14.54;100.00
19457;BME280;9867;48.094;11.478;2022-10-03T15:36:15;96044.94;;;14.58;100.00
19457;BME280;9867;48.094;11.478;2022-10-03T15:38:53;96052.06;;;14.83;100.00
19457;BME280;9867;48.094;11.478;2022-10-03T15:41:26;96045.13;;;14.77;100.00
19457;BME280;9867;48.094;11.478;2022-10-03T15:43:58;96042.94;;;14.47;100.00
19457;BME280;9867;48.094;11.478;2022-10-03T15:46:40;96045.44;;;14.08;100.00
19457;BME280;9867;48.094;11.478;2022-10-03T15:49:17;96047.31;;;13.73;100.00
19457;BME280;9867;48.094;11.478;2022-10-03T15:51:54;96045.34;;;13.75;100.00
19457;BME280;9867;48.094;11.478;2022-10-03T15:54:27;96049.16;;;13.85;100.00
19457;BME280;9867;48.094;11.478;2022-10-03T15:57:01;96033.44;;;13.80;100.00
19457;BME280;9867;48.094;11.478;2022-10-03T15:59:34;96040.63;;;13.85;100.00
19457;BME280;9867;48.094;11.478;2022-10-03T16:02:16;96038.34;;;13.62;100.00
19457;BME280;9867;48.094;11.478;2022-10-03T16:04:51;96043.06;;;13.52;100.00
19457;BME280;9867;48.094;11.478;2022-10-03T16:07:35;96044.84;;;13.45;100.00
19457;BME280;9867;48.094;11.478;2022-10-03T16:10:16;96043.41;;;13.36;100.00
19457;BME280;9867;48.094;11.478;2022-10-03T16:12:55;96040.53;;;13.24;100.00
19457;BME280;9867;48.094;11.478;2022-10-03T16:15:28;96036.38;;;13.16;100.00
19457;BME280;9867;48.094;11.478;2022-10-03T16:18:40;96036.44;;;13.02;100.00
19457;BME280;9867;48.094;11.478;2022-10-03T16:21:13;96040.09;;;12.86;100.00
19457;BME280;9867;48.094;11.478;2022-10-03T16:23:56;96027.47;;;12.63;100.00
19457;BME280;9867;48.094;11.478;2022-10-03T16:26:32;96027.75;;;12.47;100.00
19457;BME280;9867;48.094;11.478;2022-10-03T16:29:09;96026.38;;;12.29;100.00